Time;durP1;ratioP1;P1;durP2;ratioP2;P2;SDS_P1;SDS_P2;PMS_P1;PMS_P2;Temp;Humidity;BMP_temperature;BMP_pressure;BME280_temperature;BME280_humidity;BME280_pressure;Samples;Min_cycle;Max_cycle;Signal;HPM_P1;HPM_P2
2022/08/10 00:01:04;;;;;;;1.83;1.65;;;26.50;44.90;;;;;;10040878;28;20036;-65
2022/08/10 00:05:55;;;;;;;2.00;1.45;;;26.50;45.10;;;;;;10041361;28;20444;-66
2022/08/10 00:10:45;;;;;;;2.88;1.48;;;26.50;45.30;;;;;;10049047;28;20412;-66
2022/08/10 00:15:36;;;;;;;4.05;1.67;;;26.30;45.30;;;;;;10027047;28;20057;-65
2022/08/10 00:20:27;;;;;;;1.40;1.30;;;26.30;45.60;;;;;;10030750;28;20050;-64
2022/08/10 00:25:17;;;;;;;2.83;1.63;;;26.00;46.00;;;;;;10040363;28;20112;-65
2022/08/10 00:30:09;;;;;;;5.88;1.75;;;25.80;46.90;;;;;;10053203;28;20507;-67
2022/08/10 00:34:59;;;;;;;2.70;1.45;;;25.70;46.60;;;;;;10040601;28;20038;-64
2022/08/10 00:39:50;;;;;;;4.03;2.65;;;25.50;46.80;;;;;;10045816;28;20037;-64
2022/08/10 00:44:46;;;;;;;1.70;1.52;;;25.40;47.00;;;;;;10040152;28;20044;-68
2022/08/10 00:49:37;;;;;;;3.05;1.60;;;25.30;47.00;;;;;;10054217;28;20542;-63
2022/08/10 00:54:28;;;;;;;3.25;1.98;;;25.20;47.10;;;;;;10040357;28;20029;-64
2022/08/10 00:59:19;;;;;;;3.65;1.98;;;25.10;47.40;;;;;;10044842;28;20076;-67
2022/08/10 01:04:10;;;;;;;2.90;1.95;;;25.00;47.40;;;;;;10037612;28;20024;-66
2022/08/10 01:09:23;;;;;;;5.38;2.55;;;25.00;47.50;;;;;;10041218;28;20057;-67
2022/08/10 01:14:34;;;;;;;2.95;1.95;;;24.90;47.70;;;;;;10034420;28;20049;-67
2022/08/10 01:19:56;;;;;;;3.00;2.22;;;24.80;48.00;;;;;;10035167;28;20140;-67
2022/08/10 01:25:08;;;;;;;3.35;2.35;;;24.90;47.80;;;;;;10034692;28;20538;-66
2022/08/10 01:30:05;;;;;;;2.35;1.80;;;24.80;48.00;;;;;;10041125;28;20056;-65
2022/08/10 01:35:10;;;;;;;3.40;2.40;;;24.70;48.00;;;;;;10043816;28;20390;-67
2022/08/10 01:40:03;;;;;;;;;;;24.70;48.00;;;;;;10042440;28;20103;-63
2022/08/10 01:45:01;;;;;;;2.72;1.73;;;24.60;48.00;;;;;;10050516;28;19905;-68
2022/08/10 01:49:59;;;;;;;3.05;2.03;;;24.50;48.20;;;;;;10039440;28;20037;-64
2022/08/10 01:54:52;;;;;;;3.67;1.80;;;24.50;48.30;;;;;;10031627;28;20030;-66
2022/08/10 01:59:44;;;;;;;3.17;2.05;;;24.30;48.60;;;;;;10038907;28;20366;-67
2022/08/10 02:04:38;;;;;;;2.90;1.48;;;24.10;49.00;;;;;;10046031;28;20496;-64
2022/08/10 02:09:33;;;;;;;1.85;1.55;;;24.10;49.20;;;;;;10038811;28;20030;-64
2022/08/10 02:14:30;;;;;;;3.47;2.58;;;24.00;49.40;;;;;;10022364;28;20514;-65
2022/08/10 02:19:23;;;;;;;2.10;1.80;;;24.00;49.30;;;;;;10038259;28;20049;-68
2022/08/10 02:24:15;;;;;;;3.03;1.92;;;24.00;49.40;;;;;;10040713;28;20589;-65
2022/08/10 02:29:07;;;;;;;3.80;2.03;;;23.90;49.50;;;;;;10036651;28;20071;-66
2022/08/10 02:33:58;;;;;;;1.98;1.70;;;23.80;49.70;;;;;;10034622;28;20029;-63
2022/08/10 02:38:52;;;;;;;1.67;1.38;;;23.80;49.60;;;;;;10032282;28;20049;-64
2022/08/10 02:43:49;;;;;;;5.60;2.00;;;23.70;49.80;;;;;;10045769;28;20032;-64
2022/08/10 02:48:45;;;;;;;4.20;2.10;;;23.70;49.80;;;;;;10031908;28;20021;-65
2022/08/10 02:53:45;;;;;;;6.00;2.40;;;23.80;49.70;;;;;;10054075;28;20026;-67
2022/08/10 02:58:46;;;;;;;1.83;1.60;;;23.70;49.90;;;;;;10047737;28;20041;-65
2022/08/10 03:03:46;;;;;;;3.97;2.40;;;23.60;50.00;;;;;;10050810;28;20049;-64
2022/08/10 03:08:41;;;;;;;2.67;1.65;;;23.50;50.30;;;;;;10052117;28;20037;-67
2022/08/10 03:13:33;;;;;;;;;;;23.50;50.30;;;;;;10048480;28;20029;-63
2022/08/10 03:18:25;;;;;;;2.17;1.75;;;23.40;50.30;;;;;;10043078;28;20114;-68
2022/08/10 03:23:18;;;;;;;2.85;1.67;;;23.40;50.20;;;;;;10040983;28;20052;-65
2022/08/10 03:28:10;;;;;;;2.20;1.80;;;23.40;50.00;;;;;;10051031;28;20416;-66
2022/08/10 03:33:06;;;;;;;2.42;1.95;;;23.40;50.30;;;;;;10047804;28;20543;-66
2022/08/10 03:37:58;;;;;;;2.22;1.85;;;23.30;50.40;;;;;;10035530;28;20068;-67
2022/08/10 03:42:50;;;;;;;3.53;1.98;;;23.30;50.50;;;;;;10043042;28;20014;-65
2022/08/10 03:47:43;;;;;;;3.53;1.70;;;23.40;50.40;;;;;;10051267;28;20436;-64
2022/08/10 03:52:34;;;;;;;2.10;1.40;;;23.20;50.70;;;;;;10048238;28;20028;-64
2022/08/10 03:57:28;;;;;;;2.10;1.85;;;23.10;51.00;;;;;;10045634;28;20045;-64
2022/08/10 04:02:19;;;;;;;1.77;1.67;;;23.10;51.00;;;;;;10031382;28;20092;-64
2022/08/10 04:07:10;;;;;;;3.83;2.10;;;23.00;51.20;;;;;;10045075;28;20560;-64
2022/08/10 04:12:01;;;;;;;2.30;1.67;;;22.90;51.40;;;;;;10049347;28;20018;-64
2022/08/10 04:16:52;;;;;;;2.72;1.95;;;22.70;51.80;;;;;;10066070;28;20132;-66
2022/08/10 04:21:46;;;;;;;4.07;2.38;;;22.70;51.80;;;;;;10047284;28;20026;-67
2022/08/10 04:26:38;;;;;;;4.00;2.05;;;22.80;51.60;;;;;;10029291;28;20037;-70
2022/08/10 04:31:31;;;;;;;3.40;2.05;;;22.70;51.70;;;;;;10041162;28;20029;-63
2022/08/10 04:36:23;;;;;;;2.80;2.15;;;22.70;51.80;;;;;;10038485;28;20060;-66
2022/08/10 04:41:14;;;;;;;3.33;1.90;;;22.80;52.00;;;;;;10031841;28;20488;-65
2022/08/10 04:46:04;;;;;;;2.10;1.85;;;22.80;52.00;;;;;;10040201;28;20021;-65
2022/08/10 04:50:55;;;;;;;3.40;1.80;;;22.70;52.20;;;;;;10045004;28;20033;-64
2022/08/10 04:55:46;;;;;;;1.75;1.65;;;22.50;52.40;;;;;;10048278;28;20029;-63
2022/08/10 05:00:37;;;;;;;2.63;1.60;;;22.60;52.50;;;;;;10030793;28;20029;-63
2022/08/10 05:05:27;;;;;;;1.60;1.50;;;22.70;52.20;;;;;;10043622;28;20040;-64
2022/08/10 05:10:18;;;;;;;4.38;1.77;;;22.80;52.10;;;;;;10047539;28;20029;-64
2022/08/10 05:15:10;;;;;;;3.22;2.22;;;22.80;52.10;;;;;;10051249;28;20211;-64
2022/08/10 05:20:03;;;;;;;2.33;1.50;;;22.70;52.20;;;;;;10033556;28;20116;-64
2022/08/10 05:24:54;;;;;;;3.20;1.88;;;22.80;52.30;;;;;;10038062;28;20624;-63
2022/08/10 05:29:44;;;;;;;3.05;1.70;;;22.70;52.50;;;;;;10031698;28;20102;-66
2022/08/10 05:34:35;;;;;;;2.50;1.65;;;22.80;52.40;;;;;;10034331;28;20083;-65
2022/08/10 05:39:26;;;;;;;2.50;1.63;;;22.80;52.40;;;;;;10046660;28;20033;-65
2022/08/10 05:44:17;;;;;;;4.28;1.60;;;22.80;52.30;;;;;;10031406;28;20026;-64
2022/08/10 05:49:08;;;;;;;1.80;1.52;;;22.80;52.70;;;;;;10025818;28;20026;-63
2022/08/10 05:53:59;;;;;;;2.25;1.95;;;22.90;52.70;;;;;;10045682;28;20031;-65
2022/08/10 05:58:50;;;;;;;10.93;2.20;;;23.00;52.70;;;;;;10035160;28;20030;-63
2022/08/10 06:03:52;;;;;;;2.97;2.22;;;22.90;52.90;;;;;;10032686;28;20036;-64
2022/08/10 06:08:45;;;;;;;6.45;2.17;;;22.90;53.20;;;;;;10053248;28;20468;-63
2022/08/10 06:18:47;;;;;;;4.80;3.03;;;23.00;53.20;;;;;;10043792;28;20067;-64
2022/08/10 06:23:38;;;;;;;3.53;2.17;;;23.20;52.90;;;;;;10048839;28;20033;-65
2022/08/10 06:28:32;;;;;;;3.08;1.88;;;23.30;52.70;;;;;;10052880;28;20033;-64
2022/08/10 06:33:25;;;;;;;3.28;1.85;;;23.20;53.20;;;;;;10056521;28;20025;-67
2022/08/10 06:38:17;;;;;;;4.47;1.98;;;23.10;53.30;;;;;;10056269;28;20045;-66
2022/08/10 06:43:12;;;;;;;1.65;1.52;;;23.10;54.20;;;;;;10057619;28;20024;-64
2022/08/10 06:48:08;;;;;;;10.15;2.28;;;23.00;53.90;;;;;;10057224;28;20041;-63
2022/08/10 06:53:01;;;;;;;2.97;1.90;;;23.20;53.70;;;;;;10056870;28;20026;-63
2022/08/10 06:57:54;;;;;;;2.00;1.67;;;23.20;54.10;;;;;;10057859;28;20140;-62
2022/08/10 07:03:02;;;;;;;3.10;2.25;;;23.20;54.30;;;;;;10055550;28;20445;-62
2022/08/10 07:07:56;;;;;;;3.13;2.22;;;23.30;54.40;;;;;;10058163;28;20026;-62
2022/08/10 07:12:50;;;;;;;3.13;2.50;;;23.50;54.10;;;;;;10054073;28;20041;-61
2022/08/10 07:17:41;;;;;;;2.83;1.95;;;23.70;53.80;;;;;;10055315;28;20462;-66
2022/08/10 07:22:35;;;;;;;1.88;1.63;;;23.80;53.80;;;;;;10055574;28;20420;-65
2022/08/10 07:27:28;;;;;;;2.07;1.77;;;23.80;54.00;;;;;;10047985;28;20643;-63
2022/08/10 07:32:20;;;;;;;2.38;1.83;;;23.90;53.80;;;;;;10052919;28;20159;-64
2022/08/10 07:37:13;;;;;;;4.47;1.77;;;24.00;53.80;;;;;;10054896;28;20159;-63
2022/08/10 07:42:07;;;;;;;3.08;2.42;;;24.20;53.70;;;;;;10054340;28;20018;-62
2022/08/10 07:47:02;;;;;;;2.53;1.67;;;24.20;53.80;;;;;;10052376;28;20064;-62
2022/08/10 07:51:55;;;;;;;2.72;1.90;;;24.20;54.00;;;;;;10052107;28;20029;-66
2022/08/10 07:56:49;;;;;;;2.83;1.60;;;24.30;54.00;;;;;;10053597;28;20028;-66
2022/08/10 08:01:49;;;;;;;3.60;2.03;;;24.50;54.50;;;;;;10053968;28;20040;-62
2022/08/10 08:06:41;;;;;;;1.83;1.50;;;24.60;53.80;;;;;;10052026;28;20064;-62
2022/08/10 08:11:35;;;;;;;6.35;1.75;;;24.70;53.60;;;;;;10051899;28;20032;-62
2022/08/10 08:16:26;;;;;;;4.45;1.95;;;24.70;53.60;;;;;;10053025;28;20450;-62
2022/08/10 08:21:17;;;;;;;10.05;2.08;;;24.80;53.50;;;;;;10052224;28;20068;-64
2022/08/10 08:26:10;;;;;;;3.35;2.22;;;25.00;53.50;;;;;;10054144;28;20097;-62
2022/08/10 08:31:03;;;;;;;2.33;1.92;;;25.10;54.00;;;;;;10053000;28;20017;-64
2022/08/10 08:35:54;;;;;;;3.10;1.50;;;25.30;53.10;;;;;;10052919;28;20025;-64
2022/08/10 08:40:57;;;;;;;2.22;1.50;;;25.40;53.00;;;;;;10051821;28;20376;-63
2022/08/10 08:46:06;;;;;;;3.28;1.65;;;25.50;52.70;;;;;;10052297;28;20049;-66
2022/08/10 08:51:24;;;;;;;5.32;1.80;;;25.60;52.50;;;;;;10052107;28;20112;-65
2022/08/10 08:56:15;;;;;;;3.30;2.08;;;25.70;52.30;;;;;;10051770;28;20060;-66
2022/08/10 09:01:30;;;;;;;3.92;1.75;;;25.80;52.10;;;;;;10039317;28;20107;-66
2022/08/10 09:06:39;;;;;;;2.78;1.50;;;26.00;52.00;;;;;;10039218;28;20041;-60
2022/08/10 09:12:08;;;;;;;2.92;1.48;;;26.20;51.80;;;;;;10046658;28;20029;-62
2022/08/10 09:17:17;;;;;;;4.55;1.77;;;26.20;51.60;;;;;;9966763;28;20490;-63
2022/08/10 09:22:56;;;;;;;2.38;1.60;;;26.30;51.40;;;;;;10019880;28;20085;-62
2022/08/10 09:28:04;;;;;;;2.40;1.90;;;26.50;51.10;;;;;;10031913;28;20041;-61
2022/08/10 09:33:06;;;;;;;3.58;1.40;;;26.70;50.70;;;;;;10040179;28;20109;-61
2022/08/10 09:38:32;;;;;;;2.83;2.05;;;26.80;50.50;;;;;;10042204;28;20041;-61
2022/08/10 09:44:07;;;;;;;2.42;1.38;;;26.90;49.80;;;;;;10040729;28;20523;-67
2022/08/10 09:49:07;;;;;;;4.28;1.45;;;27.10;49.10;;;;;;10040720;28;20041;-67
2022/08/10 09:54:09;;;;;;;2.13;1.40;;;27.30;48.40;;;;;;10057139;28;20041;-68
2022/08/10 09:59:09;;;;;;;3.25;2.20;;;27.50;48.10;;;;;;10041372;28;20492;-71
2022/08/10 10:04:21;;;;;;;3.10;1.60;;;27.70;47.70;;;;;;10040822;28;20100;-63
2022/08/10 10:09:31;;;;;;;3.53;1.55;;;28.00;47.00;;;;;;10046715;28;20424;-64
2022/08/10 10:20:21;;;;;;;1.33;1.10;;;28.20;45.90;;;;;;10058145;28;20123;-65
2022/08/10 10:25:26;;;;;;;4.55;1.33;;;28.50;44.70;;;;;;10034806;28;20050;-66
2022/08/10 10:30:18;;;;;;;2.85;1.02;;;28.70;44.30;;;;;;10057900;28;20368;-67
2022/08/10 10:35:28;;;;;;;1.77;1.27;;;28.80;43.90;;;;;;10057771;28;20771;-67
2022/08/10 10:40:22;;;;;;;1.52;1.15;;;28.80;43.10;;;;;;10057138;28;20102;-67
2022/08/10 10:45:51;;;;;;;;;;;29.00;42.40;;;;;;10058355;28;20049;-67
2022/08/10 10:51:20;;;;;;;2.67;1.00;;;29.00;41.90;;;;;;10049454;28;19913;-64
2022/08/10 10:56:19;;;;;;;2.60;1.23;;;29.00;41.50;;;;;;10049441;28;20527;-63
2022/08/10 11:01:34;;;;;;;1.20;1.10;;;29.10;41.50;;;;;;10036906;28;20447;-66
2022/08/10 11:06:37;;;;;;;1.40;1.10;;;29.20;40.80;;;;;;10032879;28;20021;-67
2022/08/10 11:11:34;;;;;;;4.18;1.45;;;29.10;40.60;;;;;;10038762;28;20032;-59
2022/08/10 11:16:50;;;;;;;3.97;1.35;;;29.30;40.40;;;;;;10056893;28;20045;-63
2022/08/10 11:22:09;;;;;;;2.55;1.52;;;29.30;40.00;;;;;;10058157;28;20523;-67
2022/08/10 11:27:04;;;;;;;4.57;2.75;;;29.40;39.70;;;;;;10050543;28;20124;-67
2022/08/10 11:32:02;;;;;;;1.50;1.33;;;29.40;39.80;;;;;;10054116;28;20068;-66
2022/08/10 11:37:09;;;;;;;1.67;1.27;;;29.50;39.60;;;;;;10059455;28;20169;-67
2022/08/10 11:42:10;;;;;;;3.15;1.42;;;29.40;39.10;;;;;;10056985;28;20120;-64
2022/08/10 11:47:06;;;;;;;2.97;1.38;;;29.50;39.20;;;;;;10059154;28;20373;-64
2022/08/10 11:52:11;;;;;;;2.53;1.70;;;29.70;38.90;;;;;;10054933;28;20116;-62
2022/08/10 11:57:02;;;;;;;2.53;1.42;;;29.80;38.90;;;;;;10055325;28;20033;-62
2022/08/10 12:01:55;;;;;;;2.65;1.15;;;29.90;39.00;;;;;;10054337;28;20349;-66
2022/08/10 12:06:49;;;;;;;1.20;1.10;;;29.90;38.90;;;;;;10053087;28;20133;-68
2022/08/10 12:11:40;;;;;;;2.17;1.23;;;30.10;38.90;;;;;;10056378;28;20516;-67
2022/08/10 12:16:36;;;;;;;2.30;1.40;;;30.10;38.70;;;;;;10054181;28;20042;-66
2022/08/10 12:21:35;;;;;;;2.00;1.63;;;30.00;38.70;;;;;;10047114;28;20037;-67
2022/08/10 12:26:36;;;;;;;1.98;1.20;;;30.30;38.70;;;;;;10045673;28;20049;-67
2022/08/10 12:31:41;;;;;;;2.88;1.10;;;30.60;38.50;;;;;;10035616;28;20619;-69
2022/08/10 12:36:45;;;;;;;2.90;1.55;;;31.00;38.60;;;;;;10166144;27;20377;-68
2022/08/10 12:41:48;;;;;;;2.67;1.20;;;31.30;38.40;;;;;;10125994;28;20016;-66
2022/08/10 12:46:53;;;;;;;2.95;1.20;;;31.50;38.70;;;;;;10127958;28;20379;-64
2022/08/10 12:51:52;;;;;;;2.53;1.50;;;31.80;39.20;;;;;;10133518;28;20059;-64
2022/08/10 12:56:56;;;;;;;5.28;1.50;;;32.20;38.90;;;;;;10129305;28;20029;-67
2022/08/10 13:01:53;;;;;;;2.08;1.20;;;32.40;38.20;;;;;;10133585;28;20031;-66
2022/08/10 13:06:48;;;;;;;1.23;1.13;;;32.60;37.50;;;;;;10141099;28;20016;-65
2022/08/10 13:11:49;;;;;;;1.13;1.02;;;33.30;37.90;;;;;;10123528;28;20060;-61
2022/08/10 13:16:42;;;;;;;1.58;1.23;;;33.70;36.30;;;;;;10129429;28;20033;-65
2022/08/10 13:21:37;;;;;;;4.03;1.30;;;34.40;36.30;;;;;;10131228;28;20029;-62
2022/08/10 13:26:34;;;;;;;1.60;1.15;;;35.10;35.40;;;;;;10134120;28;20036;-63
2022/08/10 13:31:31;;;;;;;2.25;1.42;;;36.10;34.90;;;;;;10131570;28;20031;-65
2022/08/10 13:36:27;;;;;;;2.97;1.13;;;36.30;33.70;;;;;;10126688;28;20071;-66
2022/08/10 13:41:19;;;;;;;1.30;1.17;;;37.40;33.60;;;;;;10125544;28;20102;-66
2022/08/10 13:46:14;;;;;;;1.73;1.20;;;37.60;33.30;;;;;;10109761;28;20029;-66
2022/08/10 13:51:06;;;;;;;1.77;1.10;;;37.50;32.60;;;;;;10097782;28;20029;-66
2022/08/10 13:55:58;;;;;;;1.38;0.98;;;38.10;32.60;;;;;;10102709;28;20052;-66
2022/08/10 14:00:49;;;;;;;3.25;1.30;;;38.50;32.20;;;;;;10098811;28;20044;-67
2022/08/10 14:05:44;;;;;;;2.65;1.10;;;38.50;32.10;;;;;;10098057;28;20043;-66
2022/08/10 14:10:38;;;;;;;1.75;1.40;;;38.60;32.00;;;;;;10099616;28;20074;-64
2022/08/10 14:15:32;;;;;;;3.65;1.30;;;38.50;31.60;;;;;;10094909;28;20556;-63
2022/08/10 14:20:27;;;;;;;1.92;1.40;;;38.80;31.50;;;;;;10100565;28;20047;-64
2022/08/10 14:25:18;;;;;;;1.65;1.30;;;39.50;31.30;;;;;;10100116;28;20020;-66
2022/08/10 14:30:13;;;;;;;2.15;1.60;;;39.40;31.30;;;;;;10098446;28;20104;-61
2022/08/10 14:35:07;;;;;;;1.98;1.45;;;39.60;31.30;;;;;;10099033;28;20059;-61
2022/08/10 14:40:03;;;;;;;1.80;1.55;;;40.80;30.80;;;;;;10102769;28;20020;-66
2022/08/10 14:45:00;;;;;;;3.35;1.55;;;40.60;30.90;;;;;;10098018;28;20020;-64
2022/08/10 14:49:53;;;;;;;2.15;1.10;;;39.90;30.50;;;;;;10107489;28;20209;-61
2022/08/10 14:54:47;;;;;;;3.45;1.30;;;39.30;30.60;;;;;;10122010;28;20482;-67
2022/08/10 14:59:41;;;;;;;3.35;1.38;;;38.90;30.30;;;;;;10121119;28;20359;-63
2022/08/10 15:04:34;;;;;;;3.00;1.27;;;38.20;30.20;;;;;;10114880;28;20020;-62
2022/08/10 15:09:28;;;;;;;2.40;1.30;;;38.30;30.20;;;;;;10098594;28;20025;-63
2022/08/10 15:14:22;;;;;;;2.55;1.75;;;38.50;30.20;;;;;;10109845;28;20105;-63
2022/08/10 15:19:16;;;;;;;2.28;1.35;;;38.50;30.00;;;;;;10128610;28;20016;-63
2022/08/10 15:24:12;;;;;;;3.17;2.20;;;38.50;30.00;;;;;;10124027;28;20036;-62
2022/08/10 15:29:05;;;;;;;2.65;1.20;;;38.70;29.90;;;;;;10099829;28;20041;-64
2022/08/10 15:39:22;;;;;;;4.97;1.30;;;37.70;30.20;;;;;;10095274;28;20090;-64
2022/08/10 15:44:12;;;;;;;3.05;1.45;;;36.70;30.60;;;;;;10091682;28;20033;-64
2022/08/10 15:49:18;;;;;;;1.40;1.08;;;35.20;31.40;;;;;;10099483;28;20024;-66
2022/08/10 15:54:12;;;;;;;1.35;1.20;;;34.90;31.60;;;;;;10120980;28;20090;-62
2022/08/10 15:59:23;;;;;;;3.58;1.40;;;35.60;31.40;;;;;;10115048;28;20024;-63
2022/08/10 16:04:21;;;;;;;3.15;1.10;;;38.60;31.30;;;;;;10111279;28;20021;-64
2022/08/10 16:09:16;;;;;;;2.33;1.27;;;39.80;30.30;;;;;;10094462;28;20693;-63
2022/08/10 16:14:22;;;;;;;1.40;1.20;;;40.30;30.00;;;;;;10090331;28;20086;-62
2022/08/10 16:19:15;;;;;;;1.42;1.20;;;41.70;29.80;;;;;;10102431;28;20044;-64
2022/08/10 16:24:09;;;;;;;2.95;1.50;;;42.20;29.40;;;;;;10119354;28;20040;-63
2022/08/10 16:29:05;;;;;;;2.58;1.30;;;40.70;29.70;;;;;;10110889;28;20120;-63
2022/08/10 16:34:00;;;;;;;1.70;1.52;;;38.80;30.00;;;;;;10068352;28;20131;-64
2022/08/10 16:38:51;;;;;;;2.60;1.20;;;40.30;29.90;;;;;;10096250;28;20028;-60
2022/08/10 16:43:47;;;;;;;1.88;1.70;;;40.60;29.60;;;;;;10094901;28;20100;-59
2022/08/10 16:48:40;;;;;;;3.10;1.50;;;40.70;29.60;;;;;;10102935;28;20065;-62
2022/08/10 16:53:40;;;;;;;1.60;1.33;;;42.50;28.90;;;;;;10102034;28;20078;-62
2022/08/10 16:58:35;;;;;;;2.67;1.40;;;40.00;29.20;;;;;;10113255;28;20036;-62
2022/08/10 17:03:36;;;;;;;1.67;1.33;;;41.00;29.00;;;;;;10114920;28;20663;-60
2022/08/10 17:08:28;;;;;;;2.63;1.63;;;40.30;29.20;;;;;;10093135;28;20036;-66
2022/08/10 17:13:21;;;;;;;2.15;1.20;;;41.80;28.70;;;;;;10098415;28;20041;-61
2022/08/10 17:18:26;;;;;;;1.52;1.27;;;42.90;28.30;;;;;;10119922;28;20397;-64
2022/08/10 17:23:17;;;;;;;2.15;1.48;;;42.20;28.40;;;;;;10116352;28;20033;-60
2022/08/10 17:28:12;;;;;;;4.07;1.38;;;42.00;28.20;;;;;;10122953;28;20040;-61
2022/08/10 17:33:11;;;;;;;1.77;1.40;;;41.50;28.60;;;;;;10110856;28;20110;-65
2022/08/10 17:38:08;;;;;;;3.15;1.23;;;41.90;28.60;;;;;;10102527;28;20020;-62
2022/08/10 17:43:01;;;;;;;1.48;1.38;;;39.90;28.80;;;;;;10099948;28;20029;-62
2022/08/10 17:47:56;;;;;;;2.00;1.35;;;35.80;30.80;;;;;;10088297;28;20517;-62
2022/08/10 17:52:48;;;;;;;1.80;1.45;;;34.00;31.70;;;;;;10108630;28;20239;-64
2022/08/10 17:57:40;;;;;;;3.03;1.48;;;33.00;32.20;;;;;;10110422;28;20029;-64
2022/08/10 18:02:37;;;;;;;2.15;1.63;;;32.70;32.40;;;;;;10111692;28;20021;-65
2022/08/10 18:07:37;;;;;;;2.17;1.63;;;32.40;32.80;;;;;;10104406;28;20024;-66
2022/08/10 18:12:42;;;;;;;3.30;1.70;;;32.20;33.20;;;;;;10115712;28;20032;-65
2022/08/10 18:17:38;;;;;;;6.65;1.90;;;31.80;33.60;;;;;;10122460;28;20408;-66
2022/08/10 18:22:30;;;;;;;2.53;1.50;;;31.70;33.90;;;;;;10119749;28;20220;-62
2022/08/10 18:27:24;;;;;;;2.58;1.45;;;31.50;34.10;;;;;;10122135;28;20466;-65
2022/08/10 18:32:20;;;;;;;4.28;2.28;;;31.40;34.30;;;;;;10107940;28;20041;-65
2022/08/10 18:37:18;;;;;;;1.75;1.30;;;31.40;34.50;;;;;;10103967;28;20027;-65
2022/08/10 18:42:17;;;;;;;1.75;1.50;;;31.30;35.10;;;;;;10090474;28;20052;-64
2022/08/10 18:47:42;;;;;;;4.43;1.70;;;31.20;35.40;;;;;;10088102;28;20035;-64
2022/08/10 18:52:35;;;;;;;2.03;1.58;;;31.10;35.70;;;;;;10092969;28;20040;-65
2022/08/10 18:58:04;;;;;;;2.93;1.40;;;31.00;35.70;;;;;;10122451;28;20024;-63
2022/08/10 19:03:20;;;;;;;2.30;2.10;;;30.90;36.10;;;;;;10110876;28;20116;-63
2022/08/10 19:08:35;;;;;;;2.58;1.70;;;30.80;36.20;;;;;;10100082;28;20419;-63
2022/08/10 19:13:51;;;;;;;4.00;1.90;;;30.70;36.50;;;;;;10118135;28;20040;-64
2022/08/10 19:18:54;;;;;;;2.25;1.63;;;30.50;36.70;;;;;;10111816;28;20043;-63
2022/08/10 19:23:55;;;;;;;4.13;2.42;;;30.40;37.00;;;;;;10119312;28;20066;-64
2022/08/10 19:29:01;;;;;;;3.45;1.60;;;30.30;36.90;;;;;;10113003;28;20020;-64
2022/08/10 19:34:02;;;;;;;5.18;3.20;;;30.20;37.10;;;;;;10110252;28;20518;-62
2022/08/10 19:38:55;;;;;;;2.40;1.65;;;30.10;37.30;;;;;;10105507;28;20043;-64
2022/08/10 19:43:57;;;;;;;2.60;1.47;;;30.00;37.40;;;;;;10097513;28;20361;-63
2022/08/10 19:48:54;;;;;;;2.88;1.92;;;30.00;37.50;;;;;;10097938;28;20052;-63
2022/08/10 19:53:54;;;;;;;3.72;2.08;;;29.90;37.70;;;;;;10121244;28;20457;-63
2022/08/10 19:59:01;;;;;;;3.90;1.80;;;29.80;37.70;;;;;;10112711;28;20074;-63
2022/08/10 20:04:06;;;;;;;3.22;1.60;;;29.70;38.10;;;;;;10106119;28;20372;-64
2022/08/10 20:09:05;;;;;;;4.80;1.63;;;29.60;39.00;;;;;;10087828;28;20025;-63
2022/08/10 20:14:14;;;;;;;2.42;1.42;;;29.50;38.50;;;;;;10108689;28;20047;-65
2022/08/10 20:19:10;;;;;;;3.60;1.45;;;29.40;38.80;;;;;;10117658;28;20035;-64
2022/08/10 20:24:10;;;;;;;4.50;1.73;;;29.30;38.80;;;;;;10116083;28;20052;-64
2022/08/10 20:29:23;;;;;;;2.38;2.00;;;29.20;39.30;;;;;;10114534;28;20029;-64
2022/08/10 20:34:32;;;;;;;4.13;1.48;;;29.10;39.20;;;;;;10107952;28;20071;-64
2022/08/10 20:39:44;;;;;;;2.15;1.80;;;29.10;39.20;;;;;;10098687;28;20053;-63
2022/08/10 20:45:02;;;;;;;1.80;1.30;;;29.00;39.50;;;;;;10095562;28;20121;-64
2022/08/10 20:50:01;;;;;;;2.95;1.35;;;28.80;39.60;;;;;;10091666;28;20036;-63
2022/08/10 20:55:00;;;;;;;2.95;1.52;;;28.80;39.50;;;;;;10107482;28;20136;-64
2022/08/10 20:59:53;;;;;;;1.58;1.42;;;28.80;39.60;;;;;;10126881;28;20104;-64
2022/08/10 21:05:21;;;;;;;3.07;1.47;;;28.60;39.60;;;;;;10107985;28;20024;-63
2022/08/10 21:10:25;;;;;;;1.65;1.27;;;28.60;39.80;;;;;;10096702;28;20713;-63
2022/08/10 21:15:16;;;;;;;6.07;1.92;;;28.50;39.60;;;;;;10082292;28;20407;-64
2022/08/10 21:20:26;;;;;;;2.95;1.92;;;28.40;39.80;;;;;;10086485;28;20033;-62
2022/08/10 21:25:20;;;;;;;3.30;1.90;;;28.30;40.00;;;;;;10124140;28;20024;-62
2022/08/10 22:59:06;;;;;;;4.45;2.40;;;26.40;42.80;;;;;;10120323;28;20039;-63
2022/08/10 23:03:58;;;;;;;4.95;1.45;;;26.30;43.10;;;;;;10111332;28;20343;-62
2022/08/10 23:09:01;;;;;;;2.13;1.63;;;26.50;43.30;;;;;;10093836;28;20111;-62
2022/08/10 23:14:01;;;;;;;4.68;1.70;;;26.50;43.60;;;;;;10121785;28;20409;-61
2022/08/10 23:24:02;;;;;;;1.65;1.50;;;26.50;43.70;;;;;;10118757;28;20028;-61
2022/08/10 23:28:53;;;;;;;4.43;1.75;;;26.50;43.80;;;;;;10121109;28;20023;-61
2022/08/10 23:33:46;;;;;;;5.72;2.15;;;26.40;44.00;;;;;;10108168;28;20602;-61
2022/08/10 23:38:39;;;;;;;4.43;1.83;;;26.30;44.30;;;;;;10100425;28;20024;-62
2022/08/10 23:43:39;;;;;;;4.78;1.50;;;26.20;44.60;;;;;;10094784;28;20171;-62
2022/08/10 23:48:34;;;;;;;2.42;1.67;;;26.10;44.90;;;;;;10119659;28;20435;-63
2022/08/10 23:53:54;;;;;;;1.65;1.55;;;26.10;44.90;;;;;;10100116;28;20094;-62
2022/08/10 23:58:54;;;;;;;1.70;1.27;;;26.10;45.20;;;;;;10094353;28;20047;-62
